Time;durP1;ratioP1;P1;durP2;ratioP2;P2;SDS_P1;SDS_P2;PMS_P1;PMS_P2;Temp;Humidity;BMP_temperature;BMP_pressure;BME280_temperature;BME280_humidity;BME280_pressure;Samples;Min_cycle;Max_cycle;Signal;HPM_P1;HPM_P2
2023/04/22 00:01:28;;;;;;;6.90;6.20;;;15.20;72.00;;;;;;5071181;28;20466;-77
2023/04/22 00:03:55;;;;;;;8.20;6.80;;;15.20;72.30;;;;;;5063665;28;20921;-76
2023/04/22 00:06:22;;;;;;;7.17;6.37;;;15.20;72.10;;;;;;5070249;28;20815;-78
2023/04/22 00:08:49;;;;;;;7.90;7.10;;;15.10;72.10;;;;;;5073868;28;20591;-77
2023/04/22 00:11:16;;;;;;;7.73;6.37;;;15.10;72.30;;;;;;5071655;28;20466;-77
2023/04/22 00:13:44;;;;;;;7.37;6.67;;;15.00;73.00;;;;;;5074756;28;20458;-77
2023/04/22 00:16:20;;;;;;;7.07;6.37;;;15.00;72.40;;;;;;5074215;28;20473;-79
2023/04/22 00:18:48;;;;;;;7.07;6.43;;;15.00;72.40;;;;;;5075102;28;20527;-76
2023/04/22 00:21:15;;;;;;;6.77;6.17;;;15.00;72.40;;;;;;5074774;28;20470;-78
2023/04/22 00:23:44;;;;;;;6.77;6.00;;;15.00;72.40;;;;;;5074953;28;20852;-76
2023/04/22 00:26:11;;;;;;;7.37;6.67;;;15.10;72.50;;;;;;5076555;28;20474;-78
2023/04/22 00:28:38;;;;;;;7.33;6.73;;;15.10;72.50;;;;;;5067361;28;20471;-78
2023/04/22 00:31:05;;;;;;;7.27;6.53;;;15.00;72.40;;;;;;5064756;28;20471;-79
2023/04/22 00:33:32;;;;;;;5.90;5.30;;;15.00;72.50;;;;;;5068634;28;20466;-79
2023/04/22 00:36:00;;;;;;;12.13;6.57;;;15.00;72.70;;;;;;5075803;28;20450;-79
2023/04/22 00:38:28;;;;;;;9.20;7.13;;;15.00;72.60;;;;;;5057406;28;20478;-78
2023/04/22 00:41:00;;;;;;;7.17;6.47;;;15.00;72.60;;;;;;5076771;28;20461;-78
2023/04/22 00:43:27;;;;;;;6.40;5.23;;;15.00;72.60;;;;;;5092829;28;20470;-77
2023/04/22 00:45:55;;;;;;;6.87;6.27;;;15.00;72.60;;;;;;5074707;28;20470;-77
2023/04/22 00:48:22;;;;;;;6.30;5.77;;;15.00;72.50;;;;;;5075761;28;20505;-78
2023/04/22 00:50:49;;;;;;;7.90;7.20;;;15.00;72.50;;;;;;5075057;28;20984;-77
2023/04/22 00:53:18;;;;;;;8.37;7.50;;;15.00;72.50;;;;;;5073716;28;20466;-78
2023/04/22 00:55:45;;;;;;;7.73;6.57;;;15.00;72.40;;;;;;5072655;28;20474;-78
2023/04/22 00:58:15;;;;;;;6.83;6.20;;;14.90;72.50;;;;;;5074725;28;20466;-78
2023/04/22 01:00:43;;;;;;;7.27;6.30;;;14.90;72.50;;;;;;5073274;28;20466;-78
2023/04/22 01:03:10;;;;;;;10.20;5.90;;;14.90;72.40;;;;;;5063718;28;20475;-77
2023/04/22 01:05:38;;;;;;;7.33;6.67;;;14.80;72.40;;;;;;5055760;28;20483;-76
2023/04/22 01:08:05;;;;;;;8.03;7.00;;;14.80;72.60;;;;;;5056724;28;20459;-77
2023/04/22 01:10:33;;;;;;;8.70;7.80;;;14.80;72.60;;;;;;5055312;28;20542;-76
2023/04/22 01:13:03;;;;;;;7.40;6.80;;;14.70;72.80;;;;;;5054966;28;20816;-77
2023/04/22 01:15:30;;;;;;;7.73;6.83;;;14.70;72.80;;;;;;5055516;28;20482;-77
2023/04/22 01:17:58;;;;;;;7.03;6.33;;;14.60;72.80;;;;;;5054954;28;20468;-78
2023/04/22 01:20:28;;;;;;;7.67;6.97;;;14.60;73.00;;;;;;5056345;28;20916;-77
2023/04/22 01:22:56;;;;;;;7.33;6.60;;;14.60;73.00;;;;;;5055117;28;20485;-77
2023/04/22 01:25:25;;;;;;;11.53;7.40;;;14.60;73.20;;;;;;5053981;28;20477;-78
2023/04/22 01:27:54;;;;;;;6.90;6.27;;;14.60;73.20;;;;;;5054761;28;20471;-78
2023/04/22 01:30:21;;;;;;;8.03;5.77;;;14.60;73.40;;;;;;5055115;28;20957;-78
2023/04/22 01:32:48;;;;;;;6.87;6.27;;;14.50;73.40;;;;;;5054791;28;20478;-78
2023/04/22 01:35:16;;;;;;;8.90;7.03;;;14.50;73.40;;;;;;5056549;28;20800;-77
2023/04/22 01:37:44;;;;;;;8.57;7.40;;;14.40;73.60;;;;;;5070507;28;20466;-77
2023/04/22 01:40:12;;;;;;;8.50;7.03;;;14.40;73.60;;;;;;5075904;28;20516;-77
2023/04/22 01:42:43;;;;;;;12.90;6.63;;;14.40;73.80;;;;;;5078220;28;20467;-77
2023/04/22 01:45:12;;;;;;;8.27;7.40;;;14.40;73.90;;;;;;5070798;28;20455;-77
2023/04/22 01:47:41;;;;;;;8.37;7.70;;;14.40;74.00;;;;;;5079800;28;20478;-77
2023/04/22 01:50:10;;;;;;;7.80;6.83;;;14.40;74.10;;;;;;5079363;28;20896;-76
2023/04/22 01:52:37;;;;;;;9.97;7.67;;;14.40;74.20;;;;;;5082808;28;20545;-76
2023/04/22 01:55:05;;;;;;;7.20;6.50;;;14.30;74.20;;;;;;5082849;28;20561;-77
2023/04/22 01:57:32;;;;;;;6.30;5.70;;;14.30;74.20;;;;;;5079910;28;20466;-77
2023/04/22 02:00:00;;;;;;;8.53;6.90;;;14.30;74.30;;;;;;5079809;28;20546;-76
2023/04/22 02:02:28;;;;;;;7.57;6.80;;;14.40;74.50;;;;;;5079096;28;20486;-77
2023/04/22 02:04:55;;;;;;;8.00;7.20;;;14.30;74.40;;;;;;5077805;28;20549;-77
2023/04/22 02:07:24;;;;;;;12.80;7.60;;;14.30;74.50;;;;;;5080788;28;20516;-77
2023/04/22 02:09:51;;;;;;;8.87;7.97;;;14.20;74.70;;;;;;5080625;28;20872;-78
2023/04/22 02:12:18;;;;;;;8.00;7.27;;;14.20;74.80;;;;;;5082349;28;20466;-76
2023/04/22 02:14:45;;;;;;;8.30;7.37;;;14.20;74.90;;;;;;5078622;28;20535;-77
2023/04/22 02:17:16;;;;;;;8.17;6.93;;;14.20;74.90;;;;;;5076384;28;20467;-77
2023/04/22 02:19:44;;;;;;;8.63;7.73;;;14.20;74.80;;;;;;5079692;28;20538;-77
2023/04/22 02:22:11;;;;;;;8.77;7.87;;;14.20;74.80;;;;;;5083031;28;20512;-77
2023/04/22 02:24:38;;;;;;;8.80;7.90;;;14.20;74.90;;;;;;5083332;28;20473;-77
2023/04/22 02:27:07;;;;;;;7.73;6.93;;;14.20;74.90;;;;;;5085066;28;20930;-78
2023/04/22 02:29:34;;;;;;;7.33;6.63;;;14.20;75.00;;;;;;5088620;28;20463;-78
2023/04/22 02:32:01;;;;;;;8.17;7.33;;;14.20;75.90;;;;;;5074680;28;20496;-77
2023/04/22 02:34:31;;;;;;;7.90;7.20;;;14.20;75.00;;;;;;5075033;28;20454;-76
2023/04/22 02:36:58;;;;;;;10.63;8.10;;;14.20;75.00;;;;;;5075042;28;20535;-77
2023/04/22 02:39:25;;;;;;;8.07;7.20;;;14.10;74.70;;;;;;5075982;28;20462;-78
2023/04/22 02:41:53;;;;;;;10.17;7.23;;;14.10;75.00;;;;;;5065020;28;20968;-76
2023/04/22 02:44:20;;;;;;;9.40;8.40;;;14.00;75.10;;;;;;5073098;28;20462;-76
2023/04/22 02:46:55;;;;;;;7.40;6.70;;;14.00;75.20;;;;;;5063663;28;20466;-76
2023/04/22 02:49:22;;;;;;;8.85;7.93;;;14.00;75.30;;;;;;5073363;28;20532;-76
2023/04/22 02:51:54;;;;;;;7.77;6.80;;;14.00;75.20;;;;;;5074146;28;20232;-78
2023/04/22 02:54:21;;;;;;;9.93;6.70;;;14.10;75.40;;;;;;5073347;28;20911;-77
2023/04/22 02:56:48;;;;;;;7.63;7.03;;;14.10;75.40;;;;;;5074208;28;20547;-77
2023/04/22 02:59:15;;;;;;;10.80;7.90;;;14.10;75.40;;;;;;5073496;28;20501;-78
2023/04/22 03:01:42;;;;;;;8.20;7.30;;;14.10;76.30;;;;;;5076105;28;20467;-77
2023/04/22 03:04:10;;;;;;;10.03;7.70;;;14.10;75.40;;;;;;5073322;28;20474;-77
2023/04/22 03:06:38;;;;;;;8.00;7.30;;;14.00;75.30;;;;;;5073823;28;20470;-76
2023/04/22 03:09:06;;;;;;;8.63;7.80;;;14.00;75.40;;;;;;5072984;28;20523;-78
2023/04/22 03:11:33;;;;;;;10.57;7.53;;;14.00;75.40;;;;;;5073389;28;20466;-77
2023/04/22 03:14:00;;;;;;;8.70;7.80;;;14.00;75.40;;;;;;5073715;28;20858;-78
2023/04/22 03:16:30;;;;;;;8.23;7.40;;;14.00;75.50;;;;;;5072980;28;20581;-78
2023/04/22 03:18:57;;;;;;;8.60;7.07;;;14.00;75.40;;;;;;5072815;28;20473;-77
2023/04/22 03:21:24;;;;;;;11.75;8.02;;;14.00;75.50;;;;;;5072531;28;20789;-78
2023/04/22 03:23:51;;;;;;;8.03;7.20;;;13.90;75.60;;;;;;5074355;28;20223;-77
2023/04/22 03:26:20;;;;;;;7.53;6.80;;;13.90;75.60;;;;;;5079016;28;20474;-78
2023/04/22 03:28:47;;;;;;;7.53;6.83;;;13.90;75.70;;;;;;5079671;28;20469;-78
2023/04/22 03:31:15;;;;;;;8.87;8.03;;;13.90;76.20;;;;;;5078825;28;20812;-78
2023/04/22 03:33:42;;;;;;;8.13;7.33;;;13.90;76.20;;;;;;5079387;28;20523;-78
2023/04/22 03:36:09;;;;;;;9.07;8.17;;;13.90;76.00;;;;;;5079548;28;20493;-77
2023/04/22 03:38:36;;;;;;;8.47;7.67;;;13.90;76.30;;;;;;5080380;28;20936;-77
2023/04/22 03:41:03;;;;;;;8.00;7.07;;;13.90;77.20;;;;;;5080162;28;21024;-78
2023/04/22 03:43:31;;;;;;;7.40;6.80;;;13.90;77.10;;;;;;5079699;28;20224;-78
2023/04/22 03:45:59;;;;;;;8.63;7.40;;;13.90;77.00;;;;;;5079724;28;20477;-77
2023/04/22 03:48:34;;;;;;;7.13;6.40;;;13.90;77.50;;;;;;5084243;28;20469;-78
2023/04/22 03:51:01;;;;;;;7.40;6.70;;;13.90;77.30;;;;;;5084540;28;20469;-78
2023/04/22 03:53:29;;;;;;;6.80;6.20;;;13.80;77.20;;;;;;5080233;28;20829;-78
2023/04/22 03:55:56;;;;;;;9.40;7.50;;;13.80;77.30;;;;;;5079353;28;20509;-78
2023/04/22 03:58:23;;;;;;;7.23;6.60;;;13.80;77.10;;;;;;5080414;28;20470;-78
2023/04/22 04:00:53;;;;;;;9.77;8.80;;;13.80;76.90;;;;;;5081812;28;20466;-77
2023/04/22 04:03:20;;;;;;;9.67;8.67;;;13.70;76.80;;;;;;5078790;28;21021;-78
2023/04/22 04:05:47;;;;;;;10.40;8.83;;;13.70;77.10;;;;;;5078791;28;20470;-78
2023/04/22 04:08:14;;;;;;;7.73;7.03;;;13.60;77.20;;;;;;5078655;28;20473;-78
2023/04/22 04:10:43;;;;;;;10.27;8.27;;;13.50;77.40;;;;;;5078274;28;20537;-78
2023/04/22 04:13:10;;;;;;;9.07;8.17;;;13.50;77.60;;;;;;5079143;28;20552;-78
2023/04/22 04:15:37;;;;;;;8.65;7.75;;;13.40;77.90;;;;;;5078992;28;20485;-77
2023/04/22 04:18:08;;;;;;;10.20;8.50;;;13.40;78.10;;;;;;5079828;28;20224;-77
2023/04/22 04:20:35;;;;;;;8.07;7.27;;;13.40;78.20;;;;;;5078745;28;20453;-77
2023/04/22 04:23:02;;;;;;;9.32;8.43;;;13.40;78.70;;;;;;5079230;28;20478;-78
2023/04/22 04:25:36;;;;;;;8.55;7.50;;;13.40;78.70;;;;;;5078663;28;20248;-78
2023/04/22 04:28:04;;;;;;;10.20;8.13;;;13.30;78.80;;;;;;5077897;28;20235;-78
2023/04/22 04:30:32;;;;;;;9.10;7.00;;;13.30;79.00;;;;;;5076559;28;20219;-77
2023/04/22 04:33:05;;;;;;;9.52;8.63;;;13.30;79.30;;;;;;5079012;28;20527;-77
2023/04/22 04:35:34;;;;;;;10.13;7.85;;;13.20;79.30;;;;;;5076535;28;20228;-78
2023/04/22 04:38:01;;;;;;;10.75;9.30;;;13.20;79.70;;;;;;5075595;28;20575;-77
2023/04/22 04:40:31;;;;;;;9.93;7.85;;;13.20;79.80;;;;;;5074879;28;20707;-78
2023/04/22 04:43:01;;;;;;;10.32;9.27;;;13.20;79.80;;;;;;5075803;28;20294;-78
2023/04/22 04:45:28;;;;;;;8.57;7.72;;;13.20;79.80;;;;;;5074754;28;20232;-78
2023/04/22 04:47:55;;;;;;;9.40;8.45;;;13.20;79.80;;;;;;5075009;28;20228;-78
2023/04/22 04:50:22;;;;;;;8.48;7.55;;;13.20;80.20;;;;;;5074992;28;20235;-78
2023/04/22 04:52:51;;;;;;;10.73;8.40;;;13.20;80.20;;;;;;5075424;28;20254;-77
2023/04/22 04:55:18;;;;;;;10.70;8.15;;;13.20;80.40;;;;;;5075668;28;20278;-77
2023/04/22 04:57:45;;;;;;;10.93;7.70;;;13.10;80.50;;;;;;5076608;28;20530;-76
2023/04/22 05:00:13;;;;;;;11.68;8.55;;;13.10;80.60;;;;;;5075409;28;20470;-77
2023/04/22 05:02:40;;;;;;;10.43;8.95;;;13.10;80.60;;;;;;5075174;28;20220;-78
2023/04/22 05:05:09;;;;;;;9.15;8.02;;;13.10;80.80;;;;;;5075349;28;20220;-78
2023/04/22 05:07:36;;;;;;;7.90;7.27;;;13.10;81.00;;;;;;5073881;28;20236;-77
2023/04/22 05:10:05;;;;;;;10.82;9.55;;;13.10;81.10;;;;;;5075183;28;21032;-77
2023/04/22 05:12:32;;;;;;;9.70;8.70;;;13.00;81.20;;;;;;5072357;28;20232;-77
2023/04/22 05:15:00;;;;;;;9.63;8.63;;;13.00;81.20;;;;;;5074852;28;20224;-77
2023/04/22 05:17:27;;;;;;;11.73;8.98;;;13.10;81.40;;;;;;5074355;28;20224;-77
2023/04/22 05:19:54;;;;;;;9.90;8.90;;;13.00;81.30;;;;;;5075201;28;20250;-77
2023/04/22 05:22:22;;;;;;;13.15;9.45;;;13.10;81.50;;;;;;5074107;28;20232;-77
2023/04/22 05:24:49;;;;;;;9.77;8.77;;;13.10;81.30;;;;;;5074580;28;20251;-77
2023/04/22 05:27:18;;;;;;;11.02;8.57;;;13.10;81.50;;;;;;5075120;28;20227;-79
2023/04/22 05:29:45;;;;;;;10.55;8.60;;;13.10;81.60;;;;;;5073942;28;20305;-78
2023/04/22 05:32:12;;;;;;;11.80;8.52;;;13.10;81.60;;;;;;5075387;28;20232;-77
2023/04/22 05:34:40;;;;;;;11.23;9.40;;;13.00;81.70;;;;;;5074643;28;20224;-77
2023/04/22 05:37:10;;;;;;;11.40;8.48;;;13.00;81.80;;;;;;5074438;28;20224;-77
2023/04/22 05:39:37;;;;;;;17.80;9.30;;;13.10;82.00;;;;;;5074709;28;20228;-77
2023/04/22 05:42:04;;;;;;;11.18;9.25;;;13.10;81.90;;;;;;5074186;28;20546;-78
2023/04/22 05:44:33;;;;;;;10.10;9.18;;;13.10;81.60;;;;;;5072428;28;20228;-78
2023/04/22 05:47:02;;;;;;;10.15;9.25;;;13.20;81.90;;;;;;5074132;28;20224;-78
2023/04/22 05:49:29;;;;;;;9.73;8.73;;;13.20;81.60;;;;;;5073172;28;20327;-79
2023/04/22 05:51:56;;;;;;;9.63;8.70;;;13.30;81.80;;;;;;5074447;28;20220;-78
2023/04/22 05:54:26;;;;;;;8.63;7.85;;;13.40;81.70;;;;;;5074573;28;20224;-78
2023/04/22 05:56:54;;;;;;;8.80;7.93;;;13.40;81.80;;;;;;5074031;28;21349;-77
2023/04/22 05:59:22;;;;;;;10.00;9.02;;;13.50;81.90;;;;;;5074279;28;20501;-78
2023/04/22 06:01:50;;;;;;;8.18;7.38;;;13.60;81.70;;;;;;5073985;28;20227;-78
2023/04/22 06:04:19;;;;;;;10.82;9.55;;;13.70;81.50;;;;;;5074086;28;20281;-78
2023/04/22 06:06:46;;;;;;;9.15;8.18;;;13.80;81.40;;;;;;5073980;28;20615;-77
2023/04/22 06:09:18;;;;;;;11.30;9.37;;;13.90;81.10;;;;;;5074395;28;20228;-78
2023/04/22 06:11:46;;;;;;;9.75;8.75;;;13.90;80.60;;;;;;5073716;28;20470;-77
2023/04/22 06:14:16;;;;;;;9.80;8.50;;;14.00;80.80;;;;;;5074094;28;20549;-77
2023/04/22 06:16:49;;;;;;;9.32;8.43;;;14.10;80.60;;;;;;5078503;28;20522;-78
2023/04/22 06:19:18;;;;;;;10.23;9.23;;;14.00;80.40;;;;;;5081359;28;20223;-79
2023/04/22 06:21:45;;;;;;;9.23;8.33;;;14.00;80.20;;;;;;5080354;28;20463;-78
2023/04/22 06:24:15;;;;;;;10.10;9.20;;;14.10;80.30;;;;;;5082779;28;20490;-78
2023/04/22 06:26:43;;;;;;;8.87;8.07;;;14.20;80.40;;;;;;5078686;28;20482;-78
2023/04/22 06:29:10;;;;;;;10.10;9.10;;;14.30;80.40;;;;;;5073156;28;20494;-78
2023/04/22 06:31:37;;;;;;;10.53;9.53;;;14.30;80.00;;;;;;5073185;28;20479;-79
2023/04/22 06:34:04;;;;;;;10.00;9.00;;;14.30;80.10;;;;;;5073728;28;20505;-78
2023/04/22 06:36:36;;;;;;;10.33;9.23;;;14.40;80.20;;;;;;5073977;28;20482;-77
2023/04/22 06:39:04;;;;;;;10.00;9.00;;;14.50;80.50;;;;;;5072806;28;20458;-77
2023/04/22 06:41:39;;;;;;;10.50;9.37;;;14.60;80.20;;;;;;5072548;28;20520;-76
2023/04/22 06:44:06;;;;;;;9.87;8.87;;;14.60;79.80;;;;;;5072984;28;20450;-77
2023/04/22 06:46:33;;;;;;;9.13;8.33;;;14.70;79.50;;;;;;5073564;28;20489;-78
2023/04/22 06:49:00;;;;;;;9.60;8.70;;;14.80;79.50;;;;;;5072760;28;20767;-78
2023/04/22 06:51:27;;;;;;;12.20;8.97;;;14.80;79.40;;;;;;5073269;28;20508;-78
2023/04/22 06:53:57;;;;;;;9.17;8.30;;;14.90;79.80;;;;;;5072687;28;20470;-77
2023/04/22 06:56:24;;;;;;;10.33;9.33;;;14.90;79.50;;;;;;5072817;28;20470;-78
2023/04/22 06:58:52;;;;;;;10.87;9.77;;;15.00;79.20;;;;;;5072217;28;20467;-78
2023/04/22 07:01:23;;;;;;;10.77;8.90;;;15.10;79.40;;;;;;5062814;28;20478;-77
2023/04/22 07:03:54;;;;;;;11.63;8.00;;;15.10;79.30;;;;;;5071959;28;20466;-77
2023/04/22 07:06:28;;;;;;;10.50;9.40;;;15.20;78.90;;;;;;5072834;28;20805;-77
2023/04/22 07:08:57;;;;;;;10.47;9.47;;;15.30;78.70;;;;;;5061751;28;20547;-78
2023/04/22 07:11:25;;;;;;;9.87;8.60;;;15.30;78.60;;;;;;5071705;28;20489;-78
2023/04/22 07:13:53;;;;;;;10.60;8.60;;;15.40;78.40;;;;;;5046505;28;20531;-78
2023/04/22 07:16:20;;;;;;;12.80;8.70;;;15.50;78.70;;;;;;5072501;28;20470;-77
2023/04/22 07:18:47;;;;;;;9.60;8.70;;;15.60;78.80;;;;;;5072304;28;20467;-77
2023/04/22 07:21:14;;;;;;;9.40;7.50;;;15.70;78.60;;;;;;5072768;28;20531;-78
2023/04/22 07:23:42;;;;;;;9.97;8.97;;;15.80;78.60;;;;;;5072964;28;20566;-78
2023/04/22 07:26:10;;;;;;;10.10;8.90;;;16.00;79.30;;;;;;5074200;28;20481;-78
2023/04/22 07:28:37;;;;;;;11.07;7.80;;;16.10;78.60;;;;;;5073898;28;20470;-77
2023/04/22 07:31:04;;;;;;;10.00;8.30;;;16.20;77.80;;;;;;5064154;28;20458;-78
2023/04/22 07:33:32;;;;;;;10.33;8.80;;;16.30;77.40;;;;;;5075179;28;20466;-77
2023/04/22 07:35:59;;;;;;;9.43;8.47;;;16.40;77.10;;;;;;5076570;28;20524;-78
2023/04/22 07:38:26;;;;;;;9.20;8.30;;;16.50;78.30;;;;;;5074578;28;20475;-77
2023/04/22 07:40:53;;;;;;;12.63;11.30;;;16.60;77.20;;;;;;5072926;28;20474;-77
2023/04/22 07:43:21;;;;;;;10.03;9.10;;;16.70;76.90;;;;;;5073350;28;20458;-77
2023/04/22 07:45:48;;;;;;;9.83;9.00;;;16.80;76.80;;;;;;5072084;28;20498;-77
2023/04/22 07:49:19;;;;;;;10.00;9.03;;;16.90;76.50;;;;;;5061768;28;20467;-78
2023/04/22 07:51:49;;;;;;;10.43;9.57;;;17.00;75.50;;;;;;4972679;28;20459;-76
2023/04/22 07:54:17;;;;;;;8.80;8.10;;;17.10;75.10;;;;;;4972283;28;20786;-76
2023/04/22 07:56:44;;;;;;;9.00;8.10;;;17.20;74.50;;;;;;5022088;28;20550;-76
2023/04/22 07:59:13;;;;;;;11.60;10.40;;;17.30;73.90;;;;;;5071592;28;20466;-76
2023/04/22 08:01:40;;;;;;;9.03;7.93;;;17.40;74.00;;;;;;5071419;28;20474;-77
2023/04/22 08:04:07;;;;;;;9.83;8.93;;;17.40;73.90;;;;;;5072748;28;20478;-77
2023/04/22 08:06:36;;;;;;;11.20;10.03;;;17.50;73.60;;;;;;5074159;28;20518;-76
2023/04/22 08:09:03;;;;;;;8.13;7.43;;;17.60;74.30;;;;;;5076490;28;20872;-76
2023/04/22 08:11:32;;;;;;;10.70;9.60;;;17.70;73.80;;;;;;5077400;28;20474;-77
2023/04/22 08:13:59;;;;;;;8.97;8.07;;;17.70;73.40;;;;;;5077956;28;20470;-77
2023/04/22 08:16:28;;;;;;;9.60;8.70;;;17.80;73.80;;;;;;5076565;28;20955;-76
2023/04/22 08:18:56;;;;;;;10.03;9.03;;;17.90;73.20;;;;;;5077368;28;20466;-76
2023/04/22 08:21:23;;;;;;;9.17;8.37;;;18.00;73.60;;;;;;5078381;28;20462;-76
2023/04/22 08:23:56;;;;;;;8.73;7.73;;;18.10;73.40;;;;;;5076072;28;20528;-76
2023/04/22 08:26:23;;;;;;;8.10;7.40;;;18.10;72.70;;;;;;5075942;28;20470;-78
2023/04/22 08:28:50;;;;;;;9.43;8.43;;;18.20;72.00;;;;;;5075830;28;20458;-77
2023/04/22 08:31:17;;;;;;;10.43;9.27;;;18.30;71.50;;;;;;5076279;28;20531;-78
2023/04/22 08:33:45;;;;;;;10.20;9.30;;;18.40;71.90;;;;;;5075792;28;21033;-79
2023/04/22 08:36:15;;;;;;;8.70;7.67;;;18.50;71.60;;;;;;5076316;28;20478;-77
2023/04/22 08:38:43;;;;;;;7.73;7.13;;;18.50;71.30;;;;;;5078104;28;20934;-77
2023/04/22 08:41:10;;;;;;;9.47;7.40;;;18.70;72.10;;;;;;5075715;28;21023;-78
2023/04/22 08:43:38;;;;;;;8.07;7.23;;;18.70;71.30;;;;;;5075375;28;20531;-78
2023/04/22 08:46:06;;;;;;;11.47;8.40;;;18.80;72.00;;;;;;5075990;28;20978;-77
2023/04/22 08:48:33;;;;;;;10.63;9.13;;;18.90;71.50;;;;;;5075390;28;20474;-77
2023/04/22 08:51:01;;;;;;;9.63;8.73;;;19.00;71.10;;;;;;5075912;28;20536;-76
2023/04/22 08:53:29;;;;;;;12.97;8.13;;;19.00;70.20;;;;;;5075782;28;20470;-78
2023/04/22 08:55:56;;;;;;;8.77;7.83;;;19.00;69.70;;;;;;5076511;28;20557;-76
2023/04/22 08:58:24;;;;;;;8.20;7.23;;;19.00;69.60;;;;;;5076282;28;20466;-77
2023/04/22 09:00:51;;;;;;;8.33;7.33;;;19.10;69.60;;;;;;5075464;28;20470;-77
2023/04/22 09:03:18;;;;;;;10.10;8.27;;;19.20;69.70;;;;;;5076936;28;20474;-78
2023/04/22 09:05:47;;;;;;;8.83;8.10;;;19.10;69.10;;;;;;5075906;28;20478;-77
2023/04/22 09:08:16;;;;;;;8.10;7.40;;;19.20;69.60;;;;;;5076620;28;20997;-77
2023/04/22 09:10:44;;;;;;;8.53;7.63;;;19.20;69.70;;;;;;5076399;28;21039;-77
2023/04/22 09:13:14;;;;;;;9.17;8.10;;;19.20;69.60;;;;;;5075559;28;20920;-76
2023/04/22 09:15:41;;;;;;;8.67;7.87;;;19.30;69.60;;;;;;5074383;28;20467;-77
2023/04/22 09:18:10;;;;;;;7.80;7.00;;;19.30;68.70;;;;;;5075822;28;20498;-77
2023/04/22 09:20:37;;;;;;;9.00;8.20;;;19.50;69.10;;;;;;5075553;28;20473;-76
2023/04/22 09:23:04;;;;;;;8.30;6.87;;;19.50;69.40;;;;;;5064771;28;20466;-76
2023/04/22 09:25:35;;;;;;;8.90;7.90;;;19.70;70.10;;;;;;5075846;28;20475;-76
2023/04/22 09:28:02;;;;;;;7.77;6.93;;;19.60;68.40;;;;;;5076454;28;20487;-76
2023/04/22 09:30:34;;;;;;;8.77;6.70;;;19.70;68.60;;;;;;5076213;28;20470;-77
2023/04/22 09:33:03;;;;;;;8.23;7.53;;;19.70;68.40;;;;;;5076355;28;20462;-76
2023/04/22 09:35:31;;;;;;;7.40;6.77;;;19.70;68.40;;;;;;5077176;28;20565;-77
2023/04/22 09:38:00;;;;;;;8.10;7.40;;;19.80;68.50;;;;;;5081277;28;20466;-76
2023/04/22 09:40:29;;;;;;;7.67;6.83;;;19.90;68.40;;;;;;5085093;28;20500;-77
2023/04/22 09:43:05;;;;;;;8.33;6.40;;;19.90;69.10;;;;;;5081628;28;20486;-78
2023/04/22 09:45:34;;;;;;;7.03;6.00;;;20.00;68.80;;;;;;5082071;28;20470;-75
2023/04/22 09:48:04;;;;;;;6.70;5.83;;;20.10;68.20;;;;;;5078795;28;20987;-75
2023/04/22 09:50:31;;;;;;;6.33;5.73;;;20.10;67.50;;;;;;5083171;28;20463;-75
2023/04/22 09:53:01;;;;;;;7.43;6.23;;;20.20;68.10;;;;;;5085120;28;20504;-78
2023/04/22 09:55:30;;;;;;;7.17;6.53;;;20.30;66.80;;;;;;5087541;28;20466;-78
2023/04/22 09:58:04;;;;;;;6.87;6.20;;;20.30;67.10;;;;;;5084297;28;20466;-77
2023/04/22 10:00:33;;;;;;;6.57;5.90;;;20.40;66.60;;;;;;5078138;28;20477;-76
2023/04/22 10:03:01;;;;;;;7.07;6.37;;;20.40;66.30;;;;;;5076626;28;20497;-76
2023/04/22 10:05:28;;;;;;;7.30;6.40;;;20.40;66.30;;;;;;5074146;28;20481;-76
2023/04/22 10:07:56;;;;;;;6.33;5.70;;;20.50;65.80;;;;;;5074572;28;20910;-76
2023/04/22 10:10:25;;;;;;;9.53;6.90;;;20.50;65.40;;;;;;5074610;28;20481;-76
2023/04/22 10:12:53;;;;;;;6.50;5.60;;;20.60;65.30;;;;;;5074097;28;20973;-77
2023/04/22 10:15:22;;;;;;;7.03;6.40;;;20.60;65.40;;;;;;5075245;28;20488;-76
2023/04/22 10:17:52;;;;;;;7.13;6.10;;;20.60;65.20;;;;;;5075140;28;20963;-77
2023/04/22 10:20:21;;;;;;;6.90;6.13;;;20.70;65.50;;;;;;5082059;28;20462;-78
2023/04/22 10:22:48;;;;;;;6.67;6.07;;;20.70;64.50;;;;;;5074228;28;20470;-78
2023/04/22 10:25:24;;;;;;;6.30;5.73;;;20.80;64.40;;;;;;5075047;28;20474;-77
2023/04/22 10:27:55;;;;;;;10.20;6.40;;;20.80;63.80;;;;;;5075356;28;20496;-77
2023/04/22 10:30:31;;;;;;;8.43;7.40;;;20.80;63.40;;;;;;5076028;28;20535;-77
2023/04/22 10:33:33;;;;;;;7.40;5.80;;;20.90;63.00;;;;;;5064158;28;20796;-78
2023/04/22 10:36:09;;;;;;;6.67;6.00;;;20.90;63.00;;;;;;5074503;28;20486;-78
2023/04/22 10:38:36;;;;;;;5.73;5.23;;;21.10;63.30;;;;;;5075258;28;20494;-77
2023/04/22 10:41:04;;;;;;;7.07;6.33;;;21.10;62.00;;;;;;5073889;28;20497;-77
2023/04/22 10:43:42;;;;;;;8.50;5.70;;;21.20;61.60;;;;;;5075856;28;20477;-77
2023/04/22 10:46:51;;;;;;;7.53;6.43;;;21.10;61.80;;;;;;5076579;28;20458;-77
2023/04/22 10:49:20;;;;;;;9.73;6.63;;;21.20;62.30;;;;;;5082597;28;20454;-77
2023/04/22 10:51:49;;;;;;;7.20;6.50;;;21.20;58.50;;;;;;5083971;28;20849;-77
2023/04/22 10:54:49;;;;;;;6.33;5.70;;;21.20;58.80;;;;;;5077526;28;20450;-78
2023/04/22 10:57:27;;;;;;;6.07;5.57;;;21.30;59.30;;;;;;5074761;28;20481;-77
2023/04/22 10:59:55;;;;;;;6.30;5.43;;;21.30;57.50;;;;;;5074219;28;20469;-77
2023/04/22 11:02:24;;;;;;;7.03;5.73;;;21.20;57.90;;;;;;5073153;28;20840;-77
2023/04/22 11:04:53;;;;;;;8.50;6.33;;;21.30;58.40;;;;;;5074230;28;20466;-76
2023/04/22 11:07:30;;;;;;;7.23;5.70;;;21.30;59.20;;;;;;5073734;28;20546;-76
2023/04/22 11:10:00;;;;;;;7.03;6.27;;;21.30;58.50;;;;;;5074247;28;20473;-77
2023/04/22 11:12:43;;;;;;;6.63;6.13;;;21.30;58.40;;;;;;5074688;28;20458;-78
2023/04/22 11:15:12;;;;;;;5.30;4.80;;;21.30;58.10;;;;;;5074392;28;21025;-77
2023/04/22 11:17:44;;;;;;;5.50;5.10;;;21.40;58.10;;;;;;5074231;28;20458;-76
2023/04/22 11:20:13;;;;;;;6.63;6.03;;;21.50;58.10;;;;;;5073866;28;20463;-78
2023/04/22 11:22:43;;;;;;;9.20;6.17;;;21.60;58.30;;;;;;5072643;28;20462;-76
2023/04/22 11:25:11;;;;;;;6.10;5.03;;;21.60;56.50;;;;;;5072842;28;20463;-77
2023/04/22 11:27:38;;;;;;;6.40;5.30;;;21.60;56.10;;;;;;5073452;28;20493;-76
2023/04/22 11:30:08;;;;;;;6.70;5.90;;;21.60;56.30;;;;;;5072656;28;20470;-77
2023/04/22 11:32:36;;;;;;;11.60;5.67;;;21.60;56.60;;;;;;5073334;28;20461;-78
2023/04/22 11:35:10;;;;;;;6.43;5.50;;;21.70;57.70;;;;;;5073589;28;20470;-77
2023/04/22 11:37:41;;;;;;;5.93;5.37;;;21.80;57.20;;;;;;5072962;28;20472;-77
2023/04/22 11:40:12;;;;;;;5.67;5.17;;;21.80;56.80;;;;;;5073800;28;20454;-77
2023/04/22 11:42:39;;;;;;;6.33;5.87;;;21.80;56.70;;;;;;5072750;28;20468;-76
2023/04/22 11:45:08;;;;;;;5.50;5.13;;;21.90;56.90;;;;;;5066453;28;20478;-78
2023/04/22 11:47:36;;;;;;;5.93;5.33;;;21.90;56.10;;;;;;5077506;28;20857;-77
2023/04/22 11:50:08;;;;;;;6.17;5.70;;;21.80;55.80;;;;;;5078926;28;20466;-77
2023/04/22 11:52:47;;;;;;;6.30;5.77;;;21.90;56.60;;;;;;5078302;28;20455;-78
2023/04/22 11:55:15;;;;;;;6.33;5.63;;;21.80;55.80;;;;;;5079702;28;20467;-77
2023/04/22 11:57:42;;;;;;;6.07;5.47;;;21.80;54.90;;;;;;5077822;28;20527;-76
2023/04/22 12:00:13;;;;;;;5.90;5.30;;;21.80;55.00;;;;;;5078095;28;20532;-76
2023/04/22 12:02:43;;;;;;;5.37;4.80;;;21.80;53.40;;;;;;5082800;28;20458;-76
2023/04/22 12:05:12;;;;;;;8.07;7.27;;;21.80;53.90;;;;;;5080689;28;20478;-77
2023/04/22 12:07:40;;;;;;;7.90;7.20;;;21.90;55.00;;;;;;5078435;28;20466;-78
2023/04/22 12:10:08;;;;;;;7.77;7.07;;;21.90;56.30;;;;;;5071756;28;20470;-78
2023/04/22 12:12:39;;;;;;;7.20;6.60;;;22.00;55.30;;;;;;5076630;28;20604;-79
2023/04/22 12:15:13;;;;;;;6.57;5.97;;;22.00;54.70;;;;;;5077568;28;21008;-78
2023/04/22 12:17:40;;;;;;;6.00;5.40;;;22.10;54.70;;;;;;5077251;28;20554;-78
2023/04/22 12:20:13;;;;;;;5.43;5.00;;;22.00;54.20;;;;;;5077454;28;20539;-78
2023/04/22 12:22:40;;;;;;;7.10;6.13;;;22.10;54.40;;;;;;5078048;28;20477;-78
2023/04/22 12:25:09;;;;;;;6.40;5.80;;;22.10;55.50;;;;;;5078560;28;20532;-77
2023/04/22 12:27:36;;;;;;;9.50;6.60;;;22.10;55.60;;;;;;5077055;28;21033;-77
2023/04/22 12:30:06;;;;;;;7.07;6.37;;;22.10;56.30;;;;;;5076658;28;20847;-77
2023/04/22 12:32:33;;;;;;;6.50;5.80;;;22.10;55.50;;;;;;5078506;28;20482;-78
2023/04/22 12:35:01;;;;;;;5.93;5.43;;;22.20;55.00;;;;;;5083475;28;20484;-77
2023/04/22 12:37:29;;;;;;;5.67;5.17;;;22.10;53.20;;;;;;5077641;28;20470;-78
2023/04/22 12:40:01;;;;;;;5.70;4.97;;;22.10;53.10;;;;;;5079879;28;20939;-77
2023/04/22 12:42:32;;;;;;;11.20;6.87;;;22.10;53.10;;;;;;5076232;28;20927;-76
2023/04/22 12:44:59;;;;;;;6.23;5.73;;;22.10;53.80;;;;;;5075617;28;20545;-78
2023/04/22 12:47:26;;;;;;;7.30;6.67;;;22.10;55.20;;;;;;5075590;28;20861;-79
2023/04/22 12:49:54;;;;;;;7.87;7.17;;;22.10;55.00;;;;;;5077207;28;20473;-78
2023/04/22 12:52:21;;;;;;;6.20;5.70;;;22.10;54.30;;;;;;5076643;28;20477;-79